Manchester, United Kingdom
Current Conditions -  °F | °C
As of 10:20 AM on Friday 21 Nov 2014 (Local Time) from EGCC Reporting Station
Scattered Clouds Scattered Clouds  
Wind Chill: 40°   Ceiling: Unl
Heat Index: 46°   Visibility: 5mi
Dew Point: 41°   Wind: 15mph
Humidity: 81%   Direction: 130°SE
Pressure: 30.06"   Gusts: NA
Location:  53.48°N, 2.23°W
Report Text: EGCC 211020Z 13013KT 090V170 8000 SCT020 08/05 Q1018 NOSIG
Loading
Personal Weather Stations






























Interactive Weather Map New forecast layout! Learn more

10-Day Weather Forecast

Advertisements
Track Severe Weather on mobile